»·PEaware :: N522PM KCRQ-KSNA

N522PM :: KCRQ-KSNA

FLIGHT INFORMATION

Flight Status: Arrived
Operator: Privately registered:
United States
More flights under this callsign
Pilot: Bruce B. (6887)
Aircraft: Unknown
(LEG2)
More flights by this aircraft type
Origin: KCRQ McClellan-Palomar
United States
Destination: KSNA John Wayne-Orange Co
United States
More flights between these airports :: More routes between these airports
Route: F70
File this flight plan on PilotEdge
Remarks:
Altitude:
(Current/Filed)
4,000ft
Speed:
(Current/Filed)
230kts
Departed: 30-Nov-20 03:26 PM
Arrived: 30-Nov-20 03:52 PM
Distance/Time
Traveled:
44nm/0:25
Distance/Time
To Go:
Arrived

Flight Plot

Page will automatically refresh every two minutes.

Flight plan parsing failed; only flown route is shown


Map Options




Map Legend


Flown Route
Filed Route
Departure Airport
Arrival Airport
Navaid (VOR, NDB)
Fix

Horizontal Profiles

Position Reports

Time Latitude Longitude Heading Altitude Ground
Speed
30-Nov-20 15:09 33.125525 -117.283188 80 334ft 0kts
30-Nov-20 15:10 33.125525 -117.283188 80 334ft 0kts
30-Nov-20 15:11 33.125525 -117.283186 80 334ft 0kts
30-Nov-20 15:12 33.125526 -117.283184 80 334ft 0kts
30-Nov-20 15:13 33.125526 -117.283182 80 334ft 0kts
30-Nov-20 15:14 33.125526 -117.283181 80 334ft 0kts
30-Nov-20 15:15 33.125526 -117.283180 80 334ft 0kts
30-Nov-20 15:16 33.126362 -117.283120 351 334ft 0kts
30-Nov-20 15:17 33.126362 -117.283120 351 334ft 0kts
30-Nov-20 15:18 33.126363 -117.283121 351 334ft 0kts
30-Nov-20 15:19 33.126364 -117.283121 351 334ft 0kts
30-Nov-20 15:20 33.126364 -117.283121 351 334ft 0kts
30-Nov-20 15:21 33.127384 -117.280467 80 334ft 13kts
30-Nov-20 15:22 33.128062 -117.276156 79 334ft 13kts
30-Nov-20 15:23 33.128634 -117.272910 44 334ft 0kts
30-Nov-20 15:24 33.129064 -117.272347 41 334ft 12kts
30-Nov-20 15:25 33.132740 -117.292278 348 721ft 137kts
30-Nov-20 15:26 33.145356 -117.251073 76 2300ft 144kts
30-Nov-20 15:27 33.169299 -117.220276 7 3727ft 148kts
30-Nov-20 15:28 33.213580 -117.209480 8 4359ft 179kts
30-Nov-20 15:29 33.265856 -117.198123 8 4276ft 205kts
30-Nov-20 15:30 33.320488 -117.183833 9 4438ft 198kts
30-Nov-20 15:31 33.375168 -117.167449 11 4352ft 202kts
30-Nov-20 15:32 33.430258 -117.155106 3 4352ft 200kts
30-Nov-20 15:33 33.485715 -117.147352 3 4352ft 200kts
30-Nov-20 15:34 33.540747 -117.145119 344 4354ft 196kts
30-Nov-20 15:35 33.591045 -117.168752 318 4350ft 194kts
30-Nov-20 15:36 33.626724 -117.217095 310 4352ft 194kts
30-Nov-20 15:37 33.660537 -117.267541 304 4352ft 194kts
30-Nov-20 15:38 33.690965 -117.321044 304 4352ft 194kts
30-Nov-20 15:39 33.721441 -117.374852 304 4352ft 194kts
30-Nov-20 15:40 33.750004 -117.429917 301 4352ft 194kts
30-Nov-20 15:41 33.777928 -117.485679 301 4352ft 194kts
30-Nov-20 15:42 33.810500 -117.537325 312 4360ft 194kts
30-Nov-20 15:43 33.832735 -117.592840 263 4367ft 196kts
30-Nov-20 15:44 33.804052 -117.649094 235 4355ft 190kts
30-Nov-20 15:45 33.775102 -117.693764 236 4108ft 158kts
30-Nov-20 15:46 33.750075 -117.735280 239 3192ft 136kts
30-Nov-20 15:47 33.729900 -117.770990 240 2262ft 140kts
30-Nov-20 15:48 33.711510 -117.806359 243 1472ft 116kts
30-Nov-20 15:49 33.697958 -117.838635 243 647ft 106kts
30-Nov-20 15:50 33.680755 -117.863771 207 82ft 81kts
30-Nov-20 15:51 33.673876 -117.867485 125 59ft 0kts
30-Nov-20 15:52 33.672285 -117.866643 204 59ft 3kts
30-Nov-20 15:53 33.672200 -117.866697 206 59ft 0kts
30-Nov-20 15:54 33.672200 -117.866697 206 59ft 0kts
30-Nov-20 15:55 33.672200 -117.866697 206 59ft 0kts
30-Nov-20 15:56 33.672200 -117.866697 206 59ft 0kts
30-Nov-20 15:57 33.672200 -117.866697 206 59ft 0kts
30-Nov-20 15:58 33.672200 -117.866697 206 59ft 0kts
30-Nov-20 15:59 33.672200 -117.866697 206 59ft 0kts
30-Nov-20 16:00 33.672200 -117.866697 206 59ft 0kts
30-Nov-20 16:01 33.672200 -117.866697 206 59ft 0kts
30-Nov-20 16:02 33.672200 -117.866697 206 59ft 0kts
30-Nov-20 16:03 33.672200 -117.866697 206 59ft 0kts

Navigation Log

Ident Type
Flight plan parsing failed, navigation log unavailable